Time;durP1;ratioP1;P1;durP2;ratioP2;P2;SDS_P1;SDS_P2;PMS_P1;PMS_P2;Temp;Humidity;BMP_temperature;BMP_pressure;BME280_temperature;BME280_humidity;BME280_pressure;Samples;Min_cycle;Max_cycle;Signal;HPM_P1;HPM_P2
2022/06/27 00:01:29;;;;;;;;;5.33;3.00;;;;;19.95;54.00;100988.06;5029296;28;46090;-71
2022/06/27 00:03:54;;;;;;;;;3.00;2.33;;;;;19.89;53.97;100975.44;5032547;28;45079;-72
2022/06/27 00:06:22;;;;;;;;;3.33;3.33;;;;;19.49;53.94;100906.16;5031867;28;48842;-71
2022/06/27 00:08:48;;;;;;;;;5.67;4.00;;;;;19.70;53.76;100940.31;5032841;28;45119;-71
2022/06/27 00:11:14;;;;;;;;;2.33;2.33;;;;;19.87;53.58;100972.72;5032068;28;45076;-72
2022/06/27 00:13:40;;;;;;;;;2.00;2.00;;;;;19.58;53.54;100929.56;5029993;28;45158;-71
2022/06/27 00:16:05;;;;;;;;;3.33;3.33;;;;;19.82;53.59;100980.00;5032586;28;45087;-71
2022/06/27 00:18:31;;;;;;;;;5.00;2.67;;;;;19.66;53.66;100959.31;5033219;28;45017;-72
2022/06/27 00:20:56;;;;;;;;;2.33;2.00;;;;;19.60;53.53;100953.94;5033241;28;45206;-71
2022/06/27 00:23:21;;;;;;;;;4.67;3.67;;;;;19.58;53.93;100953.06;5032442;28;45103;-72
2022/06/27 00:25:47;;;;;;;;;3.00;3.00;;;;;19.73;53.56;100976.44;5032810;28;45745;-71
2022/06/27 00:28:12;;;;;;;;;2.00;2.00;;;;;19.72;53.48;100967.41;5031679;28;45155;-72
2022/06/27 00:30:37;;;;;;;;;2.00;2.00;;;;;19.84;53.79;100985.44;5032030;28;45465;-71
2022/06/27 00:33:03;;;;;;;;;2.00;2.00;;;;;19.56;53.57;100919.66;5028983;28;46641;-72
2022/06/27 00:35:28;;;;;;;;;3.00;2.00;;;;;19.82;53.15;100977.31;5032477;28;45691;-71
2022/06/27 00:37:53;;;;;;;;;4.33;2.33;;;;;19.65;53.41;100950.31;5031603;28;45079;-70
2022/06/27 00:40:19;;;;;;;;;5.67;2.00;;;;;19.81;53.37;100969.19;5031746;28;45041;-71
2022/06/27 00:42:44;;;;;;;;;3.67;3.67;;;;;19.72;53.30;100962.00;5032947;28;45198;-71
2022/06/27 00:45:10;;;;;;;;;2.00;2.00;;;;;19.77;52.99;100957.47;5036435;28;46140;-70
2022/06/27 00:47:35;;;;;;;;;3.33;3.33;;;;;19.85;52.65;100965.53;5029578;28;45151;-71
2022/06/27 00:50:01;;;;;;;;;3.00;2.00;;;;;19.84;52.37;100970.03;5031540;28;45190;-71
2022/06/27 00:52:26;;;;;;;;;2.00;2.00;;;;;19.89;52.64;100964.59;5030042;28;45226;-72
2022/06/27 00:54:52;;;;;;;;;2.67;2.33;;;;;19.54;52.13;100908.81;5032596;28;45196;-71
2022/06/27 00:57:18;;;;;;;;;2.00;2.00;;;;;19.85;52.01;100962.84;5031852;28;44942;-71
2022/06/27 00:59:45;;;;;;;;;5.67;4.67;;;;;19.95;51.91;100980.81;5032421;28;45025;-71
2022/06/27 01:02:11;;;;;;;;;5.00;5.00;;;;;19.96;52.13;100988.00;5031733;28;45175;-71
2022/06/27 01:04:37;;;;;;;;;5.67;4.00;;;;;19.68;51.49;100958.41;5021871;28;48259;-72
2022/06/27 01:07:06;;;;;;;;;2.33;2.33;;;;;19.80;51.92;100986.34;5032507;28;45281;-72
2022/06/27 01:09:31;;;;;;;;;4.33;3.00;;;;;19.56;51.92;100965.72;5031200;28;44942;-72
2022/06/27 01:11:56;;;;;;;;;3.67;2.67;;;;;19.74;51.87;100994.50;5028520;28;45485;-72
2022/06/27 01:14:22;;;;;;;;;4.00;1.00;;;;;19.73;51.82;100987.28;5027829;28;52800;-71
2022/06/27 01:16:48;;;;;;;;;3.00;2.67;;;;;19.48;52.06;100946.81;5027784;28;45368;-71
2022/06/27 01:19:16;;;;;;;;;3.00;3.00;;;;;19.64;52.07;100981.00;5031719;28;45479;-71
2022/06/27 01:21:50;;;;;;;;;4.00;2.00;;;;;19.66;52.27;100975.59;5029912;28;44966;-72
2022/06/27 01:24:20;;;;;;;;;2.00;2.00;;;;;19.66;52.26;100983.72;5028998;28;45313;-72
2022/06/27 01:26:45;;;;;;;;;1.00;1.00;;;;;19.61;52.50;100994.59;5028487;28;45107;-72
2022/06/27 01:29:11;;;;;;;;;1.67;1.67;;;;;19.45;52.52;100980.25;5027744;28;45902;-71
2022/06/27 01:31:38;;;;;;;;;2.00;2.00;;;;;19.38;52.83;100973.06;5029035;28;45161;-71
2022/06/27 01:34:04;;;;;;;;;3.00;2.00;;;;;19.52;52.88;101002.81;5018649;28;46255;-72
2022/06/27 01:36:42;;;;;;;;;2.67;1.67;;;;;19.53;52.63;101001.88;5011231;28;46710;-72
2022/06/27 01:39:22;;;;;;;;;2.00;2.00;;;;;19.52;52.72;101005.50;5026343;28;45253;-72
2022/06/27 01:42:00;;;;;;;;;2.00;2.00;;;;;19.48;52.65;100990.16;5024827;28;45252;-71
2022/06/27 01:44:28;;;;;;;;;4.00;2.67;;;;;19.60;52.46;101003.66;5030577;28;45146;-71
2022/06/27 01:46:55;;;;;;;;;2.00;2.00;;;;;19.33;52.29;100954.13;5030682;28;45144;-72
2022/06/27 01:49:21;;;;;;;;;3.00;2.33;;;;;19.66;52.45;101006.28;5031437;28;45196;-71
2022/06/27 01:51:49;;;;;;;;;1.67;1.67;;;;;19.62;52.45;100990.09;5031171;28;45239;-72
2022/06/27 01:54:17;;;;;;;;;2.67;1.00;;;;;19.61;52.41;100986.44;5030363;28;45296;-72
2022/06/27 01:56:46;;;;;;;;;4.00;2.00;;;;;19.70;52.24;101001.78;5030471;28;45163;-72
2022/06/27 01:59:14;;;;;;;;;4.67;3.33;;;;;19.67;52.31;100975.56;5024797;28;45250;-72
2022/06/27 02:01:41;;;;;;;;;1.00;1.00;;;;;19.69;51.98;100971.03;5027748;28;45463;-72
2022/06/27 02:04:08;;;;;;;;;2.33;2.33;;;;;19.77;51.82;100970.13;5029460;28;45975;-72
2022/06/27 02:06:36;;;;;;;;;1.00;1.00;;;;;19.71;51.99;100960.19;5026885;28;45191;-71
2022/06/27 02:09:06;;;;;;;;;4.00;2.00;;;;;19.86;51.97;100983.59;5029050;28;45045;-72
2022/06/27 02:11:32;;;;;;;;;1.00;1.00;;;;;19.86;52.01;100978.16;5030085;28;45047;-72
2022/06/27 02:13:58;;;;;;;;;3.00;2.00;;;;;19.69;51.98;100952.06;5027295;28;45990;-71
2022/06/27 02:16:24;;;;;;;;;2.00;2.00;;;;;19.69;51.90;100952.06;5027984;28;45283;-71
2022/06/27 02:18:50;;;;;;;;;2.67;2.67;;;;;19.82;51.79;100974.59;5031061;28;45088;-71
2022/06/27 02:21:25;;;;;;;;;2.00;2.00;;;;;19.83;51.84;100967.34;5028128;28;45148;-71
2022/06/27 02:23:52;;;;;;;;;2.00;1.00;;;;;19.91;51.60;100972.72;5028215;28;45191;-72
2022/06/27 02:26:20;;;;;;;;;3.00;3.00;;;;;19.89;51.57;100975.44;5029114;28;45244;-71
2022/06/27 02:28:45;;;;;;;;;3.00;1.00;;;;;19.61;52.03;100947.63;5028334;28;45177;-74
2022/06/27 02:31:11;;;;;;;;;1.00;1.00;;;;;19.86;51.82;100989.00;5029002;28;45379;-71
2022/06/27 02:33:43;;;;;;;;;3.67;3.00;;;;;19.86;51.90;100995.34;5028845;28;45202;-72
2022/06/27 02:36:13;;;;;;;;;2.00;2.00;;;;;19.88;51.51;100982.69;5029603;28;45105;-72
2022/06/27 02:38:40;;;;;;;;;2.00;1.67;;;;;19.93;51.62;100985.34;5031801;28;45044;-72
2022/06/27 02:41:09;;;;;;;;;2.67;2.00;;;;;19.95;51.45;100979.94;5030654;28;44905;-72
2022/06/27 02:43:37;;;;;;;;;1.33;1.33;;;;;19.97;51.33;100975.38;5030301;28;45242;-72
2022/06/27 02:46:03;;;;;;;;;3.00;2.00;;;;;19.99;51.13;100985.28;5031459;28;45136;-71
2022/06/27 02:48:31;;;;;;;;;2.00;1.00;;;;;19.94;51.11;100976.28;5024325;28;45065;-72
2022/06/27 02:51:03;;;;;;;;;2.33;2.33;;;;;19.99;51.03;100998.84;5029615;28;45316;-72
2022/06/27 02:53:34;;;;;;;;;3.67;3.67;;;;;19.98;50.99;100998.84;5030885;28;45274;-71
2022/06/27 02:56:02;;;;;;;;;3.00;3.00;;;;;19.85;51.27;100987.22;5030799;28;44919;-72
2022/06/27 02:58:28;;;;;;;;;1.00;1.00;;;;;19.95;51.57;100999.78;5024567;28;45428;-72
2022/06/27 03:00:55;;;;;;;;;3.00;3.00;;;;;19.70;51.08;100972.84;5028538;28;45328;-71
2022/06/27 03:03:25;;;;;;;;;2.00;2.00;;;;;19.77;51.01;100978.25;5023655;28;45720;-72
2022/06/27 03:05:57;;;;;;;;;4.00;2.33;;;;;19.94;50.93;101008.84;5014189;28;45409;-71
2022/06/27 03:08:23;;;;;;;;;1.00;1.00;;;;;19.42;50.86;100909.81;5019967;28;45263;-71
2022/06/27 03:10:48;;;;;;;;;3.00;1.00;;;;;19.89;50.66;100979.03;5030288;28;45066;-72
2022/06/27 03:13:14;;;;;;;;;1.00;1.00;;;;;19.89;50.50;100989.00;5026382;28;45749;-71
2022/06/27 03:15:39;;;;;;;;;4.00;1.00;;;;;19.81;50.68;100974.59;5026704;28;45195;-71
2022/06/27 03:18:05;;;;;;;;;1.33;1.33;;;;;19.80;50.20;100957.44;5030920;28;45280;-71
2022/06/27 03:20:30;;;;;;;;;1.00;1.00;;;;;19.82;50.04;100973.69;5020881;28;45580;-72
2022/06/27 03:22:56;;;;;;;;;2.00;2.00;;;;;19.91;50.12;100981.72;5015225;28;46025;-72
2022/06/27 03:25:21;;;;;;;;;0.00;0.00;;;;;19.85;50.00;100976.38;5028425;28;45219;-71
2022/06/27 03:27:46;;;;;;;;;2.00;1.00;;;;;19.92;49.89;100980.84;5016779;28;45405;-71
2022/06/27 03:30:12;;;;;;;;;4.67;3.33;;;;;19.78;49.91;100964.69;5016613;28;45376;-72
2022/06/27 03:32:37;;;;;;;;;4.33;3.00;;;;;19.82;49.94;100955.59;5010906;28;47678;-71
2022/06/27 03:35:03;;;;;;;;;3.33;2.00;;;;;19.81;49.96;100947.50;5027504;28;45404;-71
2022/06/27 03:37:28;;;;;;;;;4.00;2.00;;;;;19.66;50.09;100933.09;5033973;28;45579;-71
2022/06/27 03:39:54;;;;;;;;;3.00;3.00;;;;;19.75;50.22;100951.16;5023904;28;45332;-73
2022/06/27 03:42:19;;;;;;;;;5.00;3.67;;;;;19.86;50.17;100976.38;5014803;28;46850;-71
2022/06/27 03:44:44;;;;;;;;;1.67;1.67;;;;;19.82;50.53;100965.56;5042943;28;45581;-71
2022/06/27 03:47:10;;;;;;;;;1.67;1.67;;;;;19.78;50.75;100967.41;5018732;28;45656;-72
2022/06/27 03:52:19;;;;;;;;;3.00;2.00;;;;;19.62;51.18;100952.13;5022341;28;45583;-72
2022/06/27 03:54:44;;;;;;;;;3.00;2.33;;;;;19.78;51.09;100977.31;5020834;28;45302;-72
2022/06/27 03:57:10;;;;;;;;;6.33;2.67;;;;;19.80;51.05;100986.34;5019066;28;45431;-71
2022/06/27 03:59:35;;;;;;;;;4.00;3.00;;;;;19.77;50.89;100976.44;5023193;28;45311;-72
2022/06/27 04:02:00;;;;;;;;;2.00;2.00;;;;;19.50;51.01;100915.16;5030569;28;47356;-71
2022/06/27 04:04:26;;;;;;;;;3.00;3.00;;;;;19.86;50.95;100979.09;5017227;28;45935;-70
2022/06/27 04:06:51;;;;;;;;;3.00;2.00;;;;;19.74;50.95;100978.25;5027488;28;47389;-71
2022/06/27 04:09:16;;;;;;;;;2.33;2.00;;;;;19.89;50.94;100999.84;5027320;28;45520;-70
2022/06/27 04:11:42;;;;;;;;;2.00;2.00;;;;;19.90;50.97;100996.22;5030078;28;46110;-72
2022/06/27 04:14:07;;;;;;;;;3.00;3.00;;;;;19.86;51.01;100983.59;5024797;28;45569;-72
2022/06/27 04:16:32;;;;;;;;;2.00;2.00;;;;;19.75;50.79;100980.97;5017776;28;45420;-71
2022/06/27 04:18:58;;;;;;;;;2.33;2.33;;;;;19.75;51.67;100991.81;5020913;28;45195;-71
2022/06/27 04:21:23;;;;;;;;;3.00;2.00;;;;;19.66;51.38;100964.75;5021374;28;45445;-72
2022/06/27 04:23:48;;;;;;;;;1.33;1.33;;;;;19.89;51.51;101018.81;5029801;28;45041;-70
2022/06/27 04:26:14;;;;;;;;;3.00;3.00;;;;;19.90;51.71;101023.34;5024379;28;45312;-71
2022/06/27 04:28:39;;;;;;;;;3.00;2.00;;;;;19.90;51.32;101023.34;5015706;28;45478;-70
2022/06/27 04:31:05;;;;;;;;;2.00;2.00;;;;;19.79;51.47;101000.84;5017264;28;47031;-72
2022/06/27 04:33:30;;;;;;;;;2.67;2.67;;;;;19.89;51.35;101038.69;5019312;28;45355;-72
2022/06/27 04:35:55;;;;;;;;;2.00;2.00;;;;;19.80;51.64;101027.94;5022257;28;46344;-71
2022/06/27 04:38:21;;;;;;;;;2.67;2.67;;;;;19.77;51.47;101016.22;5009692;28;45761;-71
2022/06/27 04:40:46;;;;;;;;;3.00;1.00;;;;;19.91;51.67;101057.66;5025981;28;46031;-72
2022/06/27 04:43:12;;;;;;;;;4.33;3.00;;;;;19.72;51.80;101034.28;5030413;28;45347;-71
2022/06/27 04:45:38;;;;;;;;;3.67;2.00;;;;;19.58;51.98;101021.69;5013610;28;45552;-70
2022/06/27 04:48:07;;;;;;;;;4.33;3.00;;;;;19.69;51.66;101044.22;5016867;28;45396;-72
2022/06/27 04:50:34;;;;;;;;;3.00;3.00;;;;;19.80;52.25;101056.84;5016500;28;46108;-71
2022/06/27 04:53:00;;;;;;;;;3.33;3.33;;;;;19.63;51.88;101017.19;5018568;28;45481;-71
2022/06/27 04:55:26;;;;;;;;;5.67;3.00;;;;;19.45;52.15;100977.56;5033863;28;45339;-72
2022/06/27 04:57:52;;;;;;;;;3.67;2.00;;;;;19.90;51.78;101036.91;5028586;28;45107;-72
2022/06/27 05:00:18;;;;;;;;;2.00;2.00;;;;;19.86;52.36;101026.97;5029988;28;46046;-72
2022/06/27 05:02:43;;;;;;;;;6.00;5.00;;;;;19.85;52.60;101017.94;5021163;28;45409;-72
2022/06/27 05:05:09;;;;;;;;;3.00;2.00;;;;;19.79;52.36;101003.53;5025778;28;45510;-73
2022/06/27 05:07:35;;;;;;;;;2.33;2.33;;;;;19.80;52.58;100986.34;5028104;28;45310;-72
2022/06/27 05:10:00;;;;;;;;;7.33;4.67;;;;;19.80;52.51;100972.78;5029628;28;45552;-72
2022/06/27 05:12:27;;;;;;;;;6.33;6.33;;;;;19.79;52.44;100979.16;5029423;28;45018;-71
2022/06/27 05:14:53;;;;;;;;;4.67;3.00;;;;;19.94;52.78;101006.13;5029984;28;44946;-72
2022/06/27 05:17:19;;;;;;;;;6.00;3.67;;;;;19.64;52.71;100981.00;5030859;28;45057;-73
2022/06/27 05:19:45;;;;;;;;;5.00;5.00;;;;;19.92;52.70;101026.03;5029749;28;45244;-73
2022/06/27 05:22:11;;;;;;;;;4.33;4.00;;;;;19.88;52.12;101019.72;5031823;28;45138;-72
2022/06/27 05:24:37;;;;;;;;;4.00;2.67;;;;;19.92;52.59;101012.50;5017956;28;45578;-72
2022/06/27 05:27:02;;;;;;;;;2.00;2.00;;;;;19.74;52.22;100986.38;5021632;28;45777;-71
2022/06/27 05:29:28;;;;;;;;;2.33;2.00;;;;;19.93;51.88;101012.47;5031470;28;46545;-73
2022/06/27 05:31:56;;;;;;;;;1.33;1.33;;;;;19.76;51.46;100981.88;5029930;28;45115;-72
2022/06/27 05:34:22;;;;;;;;;3.00;3.00;;;;;19.52;51.76;100973.88;5029845;28;44993;-72
2022/06/27 05:36:47;;;;;;;;;3.00;2.00;;;;;19.80;51.87;101051.41;5029925;28;45125;-73
2022/06/27 05:39:13;;;;;;;;;1.00;1.00;;;;;19.83;51.96;101040.56;5028317;28;47168;-73
2022/06/27 05:41:39;;;;;;;;;3.00;2.00;;;;;19.55;52.53;100958.50;5027314;28;45203;-72
2022/06/27 05:44:05;;;;;;;;;4.67;3.67;;;;;19.97;51.73;101035.03;5032699;28;45160;-71
2022/06/27 05:46:32;;;;;;;;;2.33;2.33;;;;;20.01;52.35;101061.22;5030881;28;45122;-72
2022/06/27 05:48:59;;;;;;;;;6.00;5.00;;;;;19.95;52.39;101051.31;5025394;28;47410;-71
2022/06/27 05:51:28;;;;;;;;;5.00;4.00;;;;;19.67;52.09;100983.72;5027384;28;45101;-72
2022/06/27 05:54:01;;;;;;;;;3.33;2.00;;;;;20.07;51.56;101048.50;5022825;28;45380;-74
2022/06/27 05:56:28;;;;;;;;;4.00;4.00;;;;;19.99;51.77;101044.94;5012963;28;45634;-72
2022/06/27 05:58:58;;;;;;;;;5.00;5.00;;;;;20.00;52.62;101060.31;5015558;28;45651;-71
2022/06/27 06:01:25;;;;;;;;;20.50;17.50;;;;;19.82;52.58;101039.66;5026063;28;45442;-71
2022/06/27 06:03:52;;;;;;;;;3.00;3.00;;;;;19.85;52.56;101042.34;5020995;28;45328;-70
2022/06/27 06:06:17;;;;;;;;;7.00;4.33;;;;;20.05;52.17;101073.84;5015118;28;45229;-71
2022/06/27 06:08:43;;;;;;;;;4.00;4.00;;;;;20.06;52.49;101075.63;5012503;28;46773;-70
2022/06/27 06:11:09;;;;;;;;;6.33;6.33;;;;;20.04;52.28;101081.06;5010700;28;46062;-70
2022/06/27 06:13:36;;;;;;;;;4.33;3.00;;;;;19.66;52.08;101025.25;5017336;28;45459;-72
2022/06/27 06:16:01;;;;;;;;;6.00;5.67;;;;;20.00;52.31;101076.59;5021616;28;45474;-72
2022/06/27 06:18:27;;;;;;;;;7.33;3.00;;;;;20.00;52.11;101073.88;5022249;28;45736;-73
2022/06/27 06:20:52;;;;;;;;;3.00;3.00;;;;;19.53;51.90;100999.16;5024599;28;45409;-70
2022/06/27 06:23:18;;;;;;;;;4.00;3.67;;;;;19.99;51.79;101057.63;5016222;28;45424;-70
2022/06/27 06:25:44;;;;;;;;;7.00;3.67;;;;;19.98;51.55;101051.31;5012669;28;45665;-71
2022/06/27 06:28:10;;;;;;;;;2.00;2.00;;;;;19.94;51.64;101052.22;5009345;28;46178;-72
2022/06/27 06:30:35;;;;;;;;;4.00;3.00;;;;;20.01;51.56;101105.53;5010468;28;46033;-72
2022/06/27 06:33:05;;;;;;;;;2.33;2.33;;;;;19.83;51.67;101073.09;5012954;28;45728;-71
2022/06/27 06:35:32;;;;;;;;;4.33;3.33;;;;;20.03;51.81;101105.53;5030981;28;45434;-71
2022/06/27 06:37:59;;;;;;;;;6.00;5.00;;;;;19.97;51.89;101078.44;5018113;28;45501;-72
2022/06/27 06:40:27;;;;;;;;;3.00;3.00;;;;;20.11;51.34;101109.03;5012463;28;45723;-72
2022/06/27 06:42:52;;;;;;;;;3.67;3.67;;;;;19.98;51.85;101096.50;5012846;28;45442;-71
2022/06/27 06:45:18;;;;;;;;;3.00;3.00;;;;;19.91;51.50;101082.06;5013369;28;45576;-71
2022/06/27 06:47:45;;;;;;;;;5.00;5.00;;;;;19.94;51.81;101073.91;5014312;28;46213;-71
2022/06/27 06:50:14;;;;;;;;;4.00;4.00;;;;;19.93;52.07;101083.00;5023982;28;45229;-71
2022/06/27 06:52:41;;;;;;;;;3.00;3.00;;;;;20.07;52.13;101113.59;5013143;28;45651;-71
2022/06/27 06:55:08;;;;;;;;;4.33;1.00;;;;;19.69;51.91;101041.50;5015677;28;46403;-72
2022/06/27 06:57:33;;;;;;;;;7.00;4.33;;;;;20.12;52.15;101124.44;5015303;28;46138;-71
2022/06/27 06:59:58;;;;;;;;;4.00;4.00;;;;;19.73;52.00;101072.22;5015688;28;45327;-71
2022/06/27 07:02:26;;;;;;;;;3.33;3.33;;;;;20.10;52.68;101142.53;5015870;28;45564;-71
2022/06/27 07:04:52;;;;;;;;;10.00;8.67;;;;;20.14;52.40;101156.97;5016232;28;45387;-71
2022/06/27 07:07:19;;;;;;;;;3.67;3.67;;;;;20.06;52.39;101138.94;5016132;28;45942;-72
2022/06/27 07:09:44;;;;;;;;;5.33;5.33;;;;;20.05;51.83;101147.09;5015711;28;45384;-71
2022/06/27 07:12:10;;;;;;;;;4.00;4.00;;;;;19.83;52.53;101125.53;5016194;28;45471;-73
2022/06/27 07:14:36;;;;;;;;;4.67;3.33;;;;;20.12;52.60;101184.09;5017000;28;45458;-72
2022/06/27 07:17:01;;;;;;;;;5.00;5.00;;;;;20.04;52.55;101178.72;5016116;28;45426;-72
2022/06/27 07:19:27;;;;;;;;;7.00;4.00;;;;;20.17;52.22;101195.81;5016303;28;45376;-72
2022/06/27 07:21:53;;;;;;;;;9.67;3.67;;;;;20.14;51.87;101186.81;5016439;28;45416;-72
2022/06/27 07:24:18;;;;;;;;;7.67;5.00;;;;;20.18;51.54;101175.03;5016087;28;45429;-71
2022/06/27 07:26:44;;;;;;;;;5.00;5.00;;;;;20.18;50.93;101166.91;5015654;28;46107;-71
2022/06/27 07:29:10;;;;;;;;;12.67;10.67;;;;;20.37;50.55;101184.84;5015691;28;45498;-71
2022/06/27 07:31:36;;;;;;;;;2.00;2.00;;;;;20.38;50.56;101183.94;5015822;28;45497;-70
2022/06/27 07:34:02;;;;;;;;;2.00;2.00;;;;;20.40;50.40;101201.09;5015980;28;45313;-72
2022/06/27 07:36:29;;;;;;;;;4.67;4.00;;;;;20.14;50.62;101162.41;5015639;28;45467;-70
2022/06/27 07:38:54;;;;;;;;;2.33;2.33;;;;;20.02;50.78;101157.94;5015902;28;45437;-70
2022/06/27 07:41:22;;;;;;;;;3.67;2.33;;;;;20.29;50.71;101183.09;5015972;28;45440;-72
2022/06/27 07:43:48;;;;;;;;;7.00;5.00;;;;;20.00;50.49;101138.09;5016141;28;45528;-69
2022/06/27 07:46:17;;;;;;;;;3.67;3.00;;;;;20.32;50.60;101181.25;5015582;28;45507;-70
2022/06/27 07:48:44;;;;;;;;;3.67;3.67;;;;;20.31;50.68;101162.28;5015607;28;45478;-71
2022/06/27 07:51:16;;;;;;;;;16.00;14.50;;;;;20.21;49.96;101118.03;5015426;28;45469;-69
2022/06/27 07:53:46;;;;;;;;;6.00;4.00;;;;;20.60;49.76;101146.66;5015603;28;45493;-68
2022/06/27 07:56:12;;;;;;;;;2.00;2.00;;;;;20.84;49.20;101176.34;5015314;28;45966;-68
2022/06/27 07:58:38;;;;;;;;;2.67;1.67;;;;;20.92;49.28;101164.53;5014699;28;46017;-70
2022/06/27 08:01:06;;;;;;;;;3.00;3.00;;;;;21.01;49.22;101166.22;5013650;28;45324;-70
2022/06/27 08:06:28;;;;;;;;;4.33;3.00;;;;;21.06;48.23;101130.88;5006039;28;46423;-69
2022/06/27 08:08:59;;;;;;;;;3.00;2.00;;;;;21.51;47.63;101208.31;5008331;28;45339;-70
2022/06/27 08:11:31;;;;;;;;;3.00;3.00;;;;;21.32;47.55;101190.38;5014728;28;45503;-70
2022/06/27 08:14:03;;;;;;;;;3.67;2.00;;;;;21.38;47.97;101201.16;5014943;28;45438;-70
2022/06/27 08:16:30;;;;;;;;;3.33;3.33;;;;;21.23;47.59;101174.16;5014378;28;45978;-71
2022/06/27 08:18:55;;;;;;;;;3.00;3.00;;;;;21.48;47.05;101211.06;5014570;28;45590;-70
2022/06/27 08:21:27;;;;;;;;;10.67;9.33;;;;;21.50;47.52;101205.63;5015391;28;45473;-70
2022/06/27 08:23:56;;;;;;;;;7.00;6.00;;;;;21.51;46.48;101202.88;5015506;28;45403;-70
2022/06/27 08:26:23;;;;;;;;;5.00;5.00;;;;;21.63;46.27;101222.66;5015366;28;45573;-71
2022/06/27 08:28:50;;;;;;;;;4.00;4.00;;;;;21.65;46.18;101223.56;5015383;28;45460;-70
2022/06/27 08:31:17;;;;;;;;;2.67;2.67;;;;;21.66;45.42;101234.44;5015189;28;45608;-70
2022/06/27 08:33:44;;;;;;;;;2.67;2.00;;;;;21.63;45.65;101247.13;5015377;28;45511;-70
2022/06/27 08:36:10;;;;;;;;;6.33;4.33;;;;;21.34;46.59;101215.72;5014896;28;47258;-72
2022/06/27 08:38:48;;;;;;;;;13.67;9.67;;;;;21.33;46.91;101198.50;5014951;28;45378;-69
2022/06/27 08:41:14;;;;;;;;;4.00;3.00;;;;;21.50;47.12;101230.97;5015212;28;45618;-69
2022/06/27 08:43:41;;;;;;;;;5.00;4.00;;;;;21.49;47.34;101239.16;5015188;28;45528;-71
2022/06/27 08:46:09;;;;;;;;;5.00;5.00;;;;;21.22;47.91;101219.47;5014504;28;46302;-70
2022/06/27 08:48:41;;;;;;;;;3.00;3.00;;;;;20.62;48.72;101171.06;5014582;28;45512;-70
2022/06/27 08:51:07;;;;;;;;;1.00;1.00;;;;;20.71;48.92;101191.88;5014782;28;45459;-72
2022/06/27 08:53:38;;;;;;;;;2.00;2.00;;;;;21.13;48.33;101234.03;5014749;28;45393;-69
2022/06/27 08:56:05;;;;;;;;;2.00;2.00;;;;;20.98;47.79;101188.88;5014876;28;45438;-70
2022/06/27 08:58:31;;;;;;;;;3.00;3.00;;;;;21.26;47.26;101236.63;5015309;28;45616;-70
2022/06/27 09:00:56;;;;;;;;;4.00;2.33;;;;;21.20;46.63;101204.06;5009150;28;45559;-73
2022/06/27 09:03:23;;;;;;;;;4.00;2.00;;;;;21.44;46.25;101239.16;5014727;28;45611;-70
2022/06/27 09:05:57;;;;;;;;;14.00;11.33;;;;;21.58;45.72;101227.25;5014949;28;45577;-72
2022/06/27 09:08:27;;;;;;;;;6.33;6.00;;;;;21.77;44.65;101226.13;5014276;28;45406;-70
2022/06/27 09:10:54;;;;;;;;;3.67;3.00;;;;;21.68;44.15;101197.22;5013735;28;45488;-70
2022/06/27 09:13:20;;;;;;;;;5.00;3.67;;;;;21.75;43.52;101203.50;5014836;28;45541;-69
2022/06/27 09:15:57;;;;;;;;;4.67;3.00;;;;;21.88;43.53;101228.72;5014343;28;45367;-69
2022/06/27 09:18:31;;;;;;;;;6.33;4.67;;;;;21.64;42.62;101195.44;5014342;28;45427;-70
2022/06/27 09:21:09;;;;;;;;;2.00;2.00;;;;;21.83;43.02;101228.78;5014239;28;45303;-70
2022/06/27 09:24:01;;;;;;;;;4.00;2.67;;;;;21.82;41.76;101236.94;5014510;28;45355;-72
2022/06/27 09:26:32;;;;;;;;;3.67;3.67;;;;;21.71;42.16;101199.91;5014042;28;46175;-70
2022/06/27 09:29:04;;;;;;;;;3.00;3.00;;;;;21.92;42.38;101226.84;5014250;28;45309;-65
2022/06/27 09:31:35;;;;;;;;;8.00;6.00;;;;;21.99;42.72;101232.22;5014334;28;45327;-67
2022/06/27 09:34:19;;;;;;;;;3.00;3.00;;;;;22.17;42.61;101228.31;5014124;28;45523;-65
2022/06/27 09:36:52;;;;;;;;;1.33;1.33;;;;;22.31;39.78;101230.88;5013757;28;45332;-65
2022/06/27 09:39:32;;;;;;;;;2.67;1.67;;;;;22.30;40.08;101196.41;5014916;28;45563;-65
2022/06/27 09:42:07;;;;;;;;;3.00;3.00;;;;;22.54;40.11;101227.81;5008521;28;45449;-68
2022/06/27 09:44:34;;;;;;;;;10.33;8.00;;;;;22.61;40.05;101237.69;5014071;28;45485;-65
2022/06/27 09:47:06;;;;;;;;;19.00;14.33;;;;;22.59;40.12;101233.19;5013806;28;46229;-67
2022/06/27 09:49:38;;;;;;;;;3.67;2.67;;;;;22.67;39.86;101227.59;5013573;28;45598;-65
2022/06/27 09:52:14;;;;;;;;;2.33;2.33;;;;;22.73;39.01;101222.97;5013402;28;45345;-66
2022/06/27 09:54:43;;;;;;;;;3.00;3.00;;;;;22.70;37.40;101217.56;5013596;28;45449;-66
2022/06/27 09:57:10;;;;;;;;;1.00;1.00;;;;;22.60;37.74;101191.41;5013537;28;45318;-67
2022/06/27 09:59:36;;;;;;;;;2.00;2.00;;;;;22.83;37.88;101223.69;5013505;28;45461;-66
2022/06/27 10:02:02;;;;;;;;;3.00;3.00;;;;;22.86;37.69;101233.66;5012524;28;45616;-65
2022/06/27 10:04:29;;;;;;;;;3.67;2.67;;;;;22.90;38.71;101233.59;5013980;28;45379;-65
2022/06/27 10:06:58;;;;;;;;;2.33;2.33;;;;;23.00;38.45;101235.22;5028379;28;47314;-65
2022/06/27 10:09:25;;;;;;;;;3.00;3.00;;;;;22.99;39.71;101227.97;5013177;28;45307;-66
2022/06/27 10:12:19;;;;;;;;;2.00;2.00;;;;;22.99;39.66;101218.91;5013229;28;45327;-65
2022/06/27 10:14:44;;;;;;;;;1.67;1.67;;;;;23.00;39.48;101224.31;5007577;28;45567;-65
2022/06/27 10:17:14;;;;;;;;;1.00;1.00;;;;;23.02;39.91;101217.97;5013780;28;45524;-68
2022/06/27 10:19:59;;;;;;;;;1.33;1.33;;;;;23.08;39.33;101223.31;5007143;28;45401;-65
2022/06/27 10:22:26;;;;;;;;;1.00;1.00;;;;;23.09;39.44;101223.28;5015333;28;45533;-66
2022/06/27 10:24:51;;;;;;;;;4.00;3.33;;;;;23.15;39.47;101233.19;5019301;28;45627;-65
2022/06/27 10:27:30;;;;;;;;;3.00;3.00;;;;;23.19;39.21;101238.53;5017493;28;47540;-66
2022/06/27 10:29:57;;;;;;;;;3.00;1.33;;;;;23.19;38.18;101235.81;5019722;28;45474;-64
2022/06/27 10:32:40;;;;;;;;;2.00;2.00;;;;;23.25;38.22;101232.09;5019622;28;45367;-68
2022/06/27 10:35:07;;;;;;;;;3.00;1.33;;;;;23.31;37.31;101234.72;5020138;28;45591;-66
2022/06/27 10:37:34;;;;;;;;;1.00;1.00;;;;;23.39;37.54;101231.81;5017312;28;47281;-65
2022/06/27 10:40:42;;;;;;;;;2.00;1.67;;;;;23.46;37.87;101233.53;5019273;28;45377;-67
2022/06/27 10:43:07;;;;;;;;;2.67;1.00;;;;;23.46;36.54;101225.34;5013710;28;45461;-66
2022/06/27 10:45:32;;;;;;;;;2.67;1.33;;;;;23.16;36.24;101195.00;5012891;28;45299;-66
2022/06/27 10:48:02;;;;;;;;;3.00;3.00;;;;;23.35;36.14;101243.72;5019192;28;46039;-70
2022/06/27 10:50:40;;;;;;;;;3.00;2.00;;;;;23.36;35.56;101235.53;5019803;28;45385;-66
2022/06/27 10:53:18;;;;;;;;;3.00;2.00;;;;;23.45;36.18;101239.91;5019094;28;45552;-65
2022/06/27 10:55:43;;;;;;;;;2.00;2.00;;;;;23.50;36.32;101237.09;5019696;28;45343;-66
2022/06/27 10:58:32;;;;;;;;;3.00;2.67;;;;;23.44;36.18;101234.47;5019251;28;46227;-66
2022/06/27 11:01:14;;;;;;;;;2.00;2.00;;;;;23.39;36.15;101229.09;5013923;28;45528;-66
2022/06/27 11:03:40;;;;;;;;;7.00;5.67;;;;;23.49;36.33;101232.53;5019110;28;45383;-65
2022/06/27 11:06:06;;;;;;;;;3.67;2.00;;;;;23.61;36.18;101232.31;5019368;28;45457;-66
2022/06/27 11:08:34;;;;;;;;;4.67;1.33;;;;;23.69;36.15;101240.31;5018779;28;45977;-66
2022/06/27 11:11:00;;;;;;;;;4.00;2.67;;;;;23.79;36.11;101221.94;5024341;28;45592;-66
2022/06/27 11:13:39;;;;;;;;;3.33;3.33;;;;;23.83;35.43;101221.88;5036023;28;45135;-66
2022/06/27 11:16:07;;;;;;;;;2.00;2.00;;;;;23.74;34.67;101222.03;5031519;28;46891;-66
2022/06/27 11:18:43;;;;;;;;;3.67;3.67;;;;;23.88;35.31;101219.06;5025652;28;45909;-67
2022/06/27 11:21:11;;;;;;;;;4.67;2.67;;;;;23.92;34.66;101220.78;5030766;28;45391;-67
2022/06/27 11:23:55;;;;;;;;;4.00;4.00;;;;;23.95;34.17;101228.03;5028834;28;45261;-67
2022/06/27 11:26:23;;;;;;;;;3.00;3.00;;;;;23.92;34.52;101204.41;5026444;28;45506;-66
2022/06/27 11:34:18;;;;;;;;;3.33;3.00;;;;;24.17;33.73;101195.66;5013366;28;45486;-67
2022/06/27 11:36:45;;;;;;;;;3.33;2.00;;;;;24.45;33.20;101228.69;5012781;28;46179;-69
2022/06/27 11:39:11;;;;;;;;;2.33;2.00;;;;;24.46;32.88;101223.19;5014606;28;46233;-65